KLUD

Details ICAO KLUD
Name DECATUR MUNI
Region United States
Timezone America/Chicago (UTC-6.0)
Plans Departing 7
Arriving 1
Stats Elevation 1,047 ft / 319 m (AMSL)
Location 33.254650° -97.580553°
Runways 1
Magnetic Variation 3.759° E
Sunrise 2017-12-17 13:29:16 UTC / 2017-12-17 07:29:16 Local
Sunset 2017-12-17 23:26:37 UTC / 2017-12-17 17:26:37 Local
Advertisement - Login to hide

Runways

ID Width Length Bearing (true) Bearing (mag) Surface Threshold Offset Overrun Length
17 60 ft / 18 m 3,910 ft / 1,192 m 172.47° 168.71° Asphalt 0 ft / 0 m 0 ft / 0 m
35 60 ft / 18 m 3,910 ft / 1,192 m 352.48° 348.72° Asphalt 500 ft / 152 m 0 ft / 0 m

Map

Weather


0- 5 10 15 20 25 30 35+ Temperature / ° C

Clouds and Precipitation
Forecast for 2017-12-18 00:00 UTC. Updated 16 minutes ago

Ground ~20,000 ft ~40,000 ft Winds

METAR

KLUD 172135Z AUTO 17004KT 10SM SCT015 11/07 A3001 RMK AO2 T01120071

TAF

Not found

Frequencies

Recorded 118.22 MHz AWOS 3
Approach 118.10 MHz RGNL APP/DEP
Unicom 122.80 MHz CTAF/UNICOM
Warning: Do not use this data for real-world aviation or navigation. No guarantee of current accuracy is given.